Time;durP1;ratioP1;P1;durP2;ratioP2;P2;SDS_P1;SDS_P2;PMS_P1;PMS_P2;Temp;Humidity;BMP_temperature;BMP_pressure;BME280_temperature;BME280_humidity;BME280_pressure;Samples;Min_cycle;Max_cycle;Signal;HPM_P1;HPM_P2
2021/04/20 00:00:19;;;;;;;;;;;20.40;43.80;;;;;;5072191;28;19920;-69
2021/04/20 00:02:45;;;;;;;;;;;20.40;43.60;;;;;;5071631;28;20036;-70
2021/04/20 00:05:14;;;;;;;;;;;20.40;44.00;;;;;;5070907;28;19916;-70
2021/04/20 00:07:40;;;;;;;;;;;20.30;43.50;;;;;;5076114;28;20338;-70
2021/04/20 00:10:07;;;;;;;;;;;20.30;44.00;;;;;;5070401;28;20069;-70
2021/04/20 00:12:33;;;;;;;;;;;20.20;44.00;;;;;;5063629;28;19913;-70
2021/04/20 00:14:59;;;;;;;;;;;20.10;44.30;;;;;;5074805;28;19920;-70
2021/04/20 00:17:25;;;;;;;;;;;20.00;44.40;;;;;;5075790;28;20324;-70
2021/04/20 00:19:51;;;;;;;;;;;19.90;44.30;;;;;;5072595;28;20365;-71
2021/04/20 00:22:17;;;;;;;;;;;19.90;44.30;;;;;;5069735;28;19917;-71
2021/04/20 00:24:43;;;;;;;;;;;19.90;44.10;;;;;;5066217;28;19921;-71
2021/04/20 00:27:09;;;;;;;;;;;19.80;44.30;;;;;;5078136;28;19919;-70
2021/04/20 00:29:35;;;;;;;;;;;19.80;44.30;;;;;;5061872;28;20395;-70
2021/04/20 00:32:01;;;;;;;;;;;19.90;42.20;;;;;;5066290;28;19983;-71
2021/04/20 00:34:27;;;;;;;;;;;20.10;41.10;;;;;;5076752;28;19916;-72
2021/04/20 00:36:53;;;;;;;;;;;20.20;41.10;;;;;;5076006;28;20235;-72
2021/04/20 00:39:19;;;;;;;;;;;20.40;42.70;;;;;;5082783;28;20369;-71
2021/04/20 00:41:45;;;;;;;;;;;20.40;43.00;;;;;;5094617;28;20373;-71
2021/04/20 00:44:11;;;;;;;;;;;20.40;43.70;;;;;;5078751;28;20319;-71
2021/04/20 00:46:37;;;;;;;;;;;20.30;43.40;;;;;;5075288;28;19973;-70
2021/04/20 00:49:04;;;;;;;;;;;20.10;43.70;;;;;;5075069;28;20304;-71
2021/04/20 00:51:30;;;;;;;;;;;19.80;44.10;;;;;;5073343;28;19912;-70
2021/04/20 00:53:56;;;;;;;;;;;19.60;44.40;;;;;;5072229;28;19917;-70
2021/04/20 00:56:22;;;;;;;;;;;19.60;44.80;;;;;;5073252;28;19920;-71
2021/04/20 00:58:48;;;;;;;;;;;19.50;45.00;;;;;;5073675;28;20239;-71
2021/04/20 01:01:14;;;;;;;;;;;19.50;44.60;;;;;;5064876;28;19939;-71
2021/04/20 01:03:40;;;;;;;;;;;19.40;45.20;;;;;;5072442;28;19981;-71
2021/04/20 01:06:06;;;;;;;;;;;19.40;44.90;;;;;;5074097;28;19916;-70
2021/04/20 01:08:33;;;;;;;;;;;19.30;45.50;;;;;;5072663;28;20345;-72
2021/04/20 01:11:00;;;;;;;;;;;19.20;45.60;;;;;;5069680;28;19936;-71
2021/04/20 01:13:30;;;;;;;;;;;19.10;45.70;;;;;;5073490;28;19916;-71
2021/04/20 01:15:56;;;;;;;;;;;19.20;45.70;;;;;;5072369;28;19920;-71
2021/04/20 01:18:25;;;;;;;;;;;19.30;45.30;;;;;;5073676;28;19959;-71
2021/04/20 01:20:52;;;;;;;;;;;19.20;45.60;;;;;;5071996;28;19920;-71
2021/04/20 01:23:20;;;;;;;;;;;19.10;45.80;;;;;;5071006;28;19923;-69
2021/04/20 01:25:46;;;;;;;;;;;19.00;46.20;;;;;;5070671;28;19943;-69
2021/04/20 01:28:12;;;;;;;;;;;19.10;46.30;;;;;;5072125;28;20003;-70
2021/04/20 01:30:39;;;;;;;;;;;18.90;46.40;;;;;;5070982;28;19912;-70
2021/04/20 01:33:05;;;;;;;;;;;18.90;46.50;;;;;;5074205;28;19962;-69
2021/04/20 01:35:35;;;;;;;;;;;18.80;47.10;;;;;;5070976;28;19916;-70
2021/04/20 01:38:02;;;;;;;;;;;18.50;47.10;;;;;;5074483;28;20304;-69
2021/04/20 01:40:28;;;;;;;;;;;18.50;47.70;;;;;;5093928;28;19916;-70
2021/04/20 01:42:54;;;;;;;;;;;18.40;48.30;;;;;;5073475;28;20358;-70
2021/04/20 01:45:21;;;;;;;;;;;18.30;48.60;;;;;;5065215;28;19913;-70
2021/04/20 01:47:48;;;;;;;;;;;18.00;49.60;;;;;;5073777;28;19917;-70
2021/04/20 01:50:14;;;;;;;;;;;17.80;49.70;;;;;;5070551;28;20048;-70
2021/04/20 01:52:41;;;;;;;;;;;17.80;50.70;;;;;;5073694;28;19982;-70
2021/04/20 01:55:07;;;;;;;;;;;17.50;50.90;;;;;;5073736;28;20346;-69
2021/04/20 01:57:34;;;;;;;;;;;17.30;51.20;;;;;;5074062;28;19948;-70
2021/04/20 02:00:00;;;;;;;;;;;17.20;51.70;;;;;;5072093;28;20331;-70
2021/04/20 02:02:26;;;;;;;;;;;17.10;51.70;;;;;;5067469;28;19955;-70
2021/04/20 02:04:52;;;;;;;;;;;17.00;52.10;;;;;;5072648;28;19912;-70
2021/04/20 02:07:18;;;;;;;;;;;16.90;52.00;;;;;;5072177;28;19912;-70
2021/04/20 02:09:44;;;;;;;;;;;16.80;51.80;;;;;;5073668;28;19916;-69
2021/04/20 02:12:11;;;;;;;;;;;16.80;51.90;;;;;;5074817;28;19961;-70
2021/04/20 02:14:37;;;;;;;;;;;16.70;52.70;;;;;;5108016;28;20234;-71
2021/04/20 02:17:03;;;;;;;;;;;16.60;52.70;;;;;;5071358;28;19912;-68
2021/04/20 02:19:30;;;;;;;;;;;16.50;51.70;;;;;;5074840;28;19939;-70
2021/04/20 02:21:56;;;;;;;;;;;16.50;53.40;;;;;;5072943;28;19913;-69
2021/04/20 02:24:22;;;;;;;;;;;16.40;53.50;;;;;;5075683;28;20008;-69
2021/04/20 02:26:48;;;;;;;;;;;16.30;53.50;;;;;;5076743;28;19913;-71
2021/04/20 02:29:14;;;;;;;;;;;16.10;53.60;;;;;;5075889;28;19920;-70
2021/04/20 02:31:41;;;;;;;;;;;16.00;53.50;;;;;;5073920;28;20216;-72
2021/04/20 02:34:08;;;;;;;;;;;16.00;54.20;;;;;;5075694;28;20342;-70
2021/04/20 02:36:38;;;;;;;;;;;15.80;54.00;;;;;;5073530;28;19979;-71
2021/04/20 02:39:05;;;;;;;;;;;15.80;54.40;;;;;;5073297;28;19916;-71
2021/04/20 02:41:32;;;;;;;;;;;15.90;54.80;;;;;;5070021;28;19913;-70
2021/04/20 02:43:59;;;;;;;;;;;15.70;54.30;;;;;;5077107;28;19912;-72
2021/04/20 02:46:26;;;;;;;;;;;15.60;53.80;;;;;;5077922;28;19952;-72
2021/04/20 02:48:52;;;;;;;;;;;15.60;54.40;;;;;;5076982;28;19920;-69
2021/04/20 02:51:18;;;;;;;;;;;15.70;54.00;;;;;;5080996;28;19966;-70
2021/04/20 02:53:44;;;;;;;;;;;15.70;55.80;;;;;;5078729;28;20345;-69
2021/04/20 02:56:12;;;;;;;;;;;15.60;55.30;;;;;;5074485;28;19916;-69
2021/04/20 02:58:39;;;;;;;;;;;15.40;55.60;;;;;;5073493;28;19942;-69
2021/04/20 03:01:07;;;;;;;;;;;15.50;55.70;;;;;;5076678;28;20239;-69
2021/04/20 03:03:38;;;;;;;;;;;15.40;56.00;;;;;;5077126;28;19909;-69
2021/04/20 03:06:04;;;;;;;;;;;15.40;56.60;;;;;;5077723;28;19912;-70
2021/04/20 03:08:30;;;;;;;;;;;15.30;56.40;;;;;;5070305;28;20368;-70
2021/04/20 03:11:14;;;;;;;;;;;15.30;56.80;;;;;;5075867;28;19912;-70
2021/04/20 03:13:41;;;;;;;;;;;15.20;57.10;;;;;;5076094;28;20019;-69
2021/04/20 03:16:08;;;;;;;;;;;15.00;56.50;;;;;;5072575;28;19919;-69
2021/04/20 03:18:34;;;;;;;;;;;14.90;56.00;;;;;;5073880;28;19912;-70
2021/04/20 03:21:02;;;;;;;;;;;15.10;56.40;;;;;;5072562;28;19912;-70
2021/04/20 03:23:30;;;;;;;;;;;15.10;56.50;;;;;;5072154;28;19913;-69
2021/04/20 03:25:59;;;;;;;;;;;15.00;56.10;;;;;;5075366;28;20002;-69
2021/04/20 03:28:26;;;;;;;;;;;15.00;56.00;;;;;;5081347;28;20337;-69
2021/04/20 03:30:54;;;;;;;;;;;15.10;55.80;;;;;;5083768;28;19958;-70
2021/04/20 03:33:33;;;;;;;;;;;15.00;56.30;;;;;;5089922;28;20326;-69
2021/04/20 03:35:59;;;;;;;;;;;15.20;56.80;;;;;;5074320;28;19923;-68
2021/04/20 03:38:34;;;;;;;;;;;15.20;57.40;;;;;;5071685;28;19912;-70
2021/04/20 03:41:11;;;;;;;;;;;15.20;57.80;;;;;;5096723;28;20364;-69
2021/04/20 03:43:39;;;;;;;;;;;15.10;57.80;;;;;;5074580;28;19912;-68
2021/04/20 03:46:11;;;;;;;;;;;15.10;58.20;;;;;;5076158;28;20053;-69
2021/04/20 03:48:40;;;;;;;;;;;15.00;58.50;;;;;;5076334;28;19939;-69
2021/04/20 03:51:09;;;;;;;;;;;15.00;58.20;;;;;;5075744;28;19913;-69
2021/04/20 03:53:35;;;;;;;;;;;15.00;59.10;;;;;;5075597;28;19920;-69
2021/04/20 03:56:02;;;;;;;;;;;14.90;58.90;;;;;;5076485;28;20354;-69
2021/04/20 03:58:29;;;;;;;;;;;14.90;58.70;;;;;;5075399;28;19916;-70
2021/04/20 04:00:58;;;;;;;;;;;14.80;59.40;;;;;;5076092;28;19944;-69
2021/04/20 04:03:26;;;;;;;;;;;14.70;59.30;;;;;;5074519;28;19974;-70
2021/04/20 04:05:53;;;;;;;;;;;14.70;58.80;;;;;;5074870;28;19912;-69
2021/04/20 04:08:22;;;;;;;;;;;14.80;59.60;;;;;;5075551;28;19969;-70
2021/04/20 04:10:54;;;;;;;;;;;14.80;59.10;;;;;;5108277;28;20295;-69
2021/04/20 04:13:25;;;;;;;;;;;14.80;59.10;;;;;;5075368;28;19971;-69
2021/04/20 04:15:55;;;;;;;;;;;14.70;58.90;;;;;;5075165;28;19966;-69
2021/04/20 04:18:21;;;;;;;;;;;14.80;59.30;;;;;;5077577;28;19912;-69
2021/04/20 04:20:48;;;;;;;;;;;14.90;59.60;;;;;;5075835;28;19912;-69
2021/04/20 04:23:16;;;;;;;;;;;14.80;59.90;;;;;;5075802;28;20417;-68
2021/04/20 04:25:49;;;;;;;;;;;14.80;59.80;;;;;;5075963;28;20315;-67
2021/04/20 04:28:15;;;;;;;;;;;14.80;60.30;;;;;;5065006;28;20400;-67
2021/04/20 04:30:43;;;;;;;;;;;14.80;60.60;;;;;;5075452;28;19920;-69
2021/04/20 04:33:11;;;;;;;;;;;14.70;60.50;;;;;;5074738;28;19916;-68
2021/04/20 04:35:39;;;;;;;;;;;14.70;60.20;;;;;;5075882;28;19908;-70
2021/04/20 04:38:05;;;;;;;;;;;14.70;60.50;;;;;;5069877;28;20361;-68
2021/04/20 04:40:32;;;;;;;;;;;14.70;60.80;;;;;;5075783;28;19939;-68
2021/04/20 04:43:01;;;;;;;;;;;14.60;60.80;;;;;;5075309;28;20391;-68
2021/04/20 04:45:28;;;;;;;;;;;14.60;60.30;;;;;;5076484;28;20341;-68
2021/04/20 04:47:54;;;;;;;;;;;14.60;60.90;;;;;;5074895;28;19930;-69
2021/04/20 04:50:20;;;;;;;;;;;14.60;60.80;;;;;;5076113;28;19923;-70
2021/04/20 04:52:47;;;;;;;;;;;14.70;61.00;;;;;;5074946;28;19923;-74
2021/04/20 04:55:15;;;;;;;;;;;14.70;60.80;;;;;;5078059;28;19918;-76
2021/04/20 04:57:41;;;;;;;;;;;14.70;60.80;;;;;;5077670;28;19912;-70
2021/04/20 05:00:07;;;;;;;;;;;14.60;60.80;;;;;;5074782;28;20307;-70
2021/04/20 05:02:34;;;;;;;;;;;14.60;60.70;;;;;;5075360;28;19931;-70
2021/04/20 05:05:08;;;;;;;;;;;14.60;61.50;;;;;;5075415;28;19951;-70
2021/04/20 05:07:34;;;;;;;;;;;14.60;60.20;;;;;;5075439;28;19912;-70
2021/04/20 05:10:01;;;;;;;;;;;14.60;60.80;;;;;;5075651;28;20323;-68
2021/04/20 05:12:27;;;;;;;;;;;14.60;60.60;;;;;;5075495;28;19908;-70
2021/04/20 05:14:54;;;;;;;;;;;14.50;61.10;;;;;;5074946;28;19916;-70
2021/04/20 05:17:20;;;;;;;;;;;14.60;61.20;;;;;;5075342;28;19998;-70
2021/04/20 05:19:47;;;;;;;;;;;14.60;60.90;;;;;;5107691;28;19919;-67
2021/04/20 05:22:13;;;;;;;;;;;14.60;60.60;;;;;;5075245;28;20069;-70
2021/04/20 05:24:40;;;;;;;;;;;14.60;61.30;;;;;;5073973;28;20262;-70
2021/04/20 05:27:06;;;;;;;;;;;14.50;61.30;;;;;;5072748;28;19920;-70
2021/04/20 05:29:37;;;;;;;;;;;14.60;61.80;;;;;;5073796;28;19966;-69
2021/04/20 05:32:04;;;;;;;;;;;14.60;61.70;;;;;;5075004;28;19978;-69
2021/04/20 05:34:30;;;;;;;;;;;14.40;62.10;;;;;;5075044;28;19917;-69
2021/04/20 05:36:56;;;;;;;;;;;14.40;62.10;;;;;;5074779;28;19928;-69
2021/04/20 05:39:22;;;;;;;;;;;14.40;61.80;;;;;;5103301;28;20204;-69
2021/04/20 05:41:48;;;;;;;;;;;14.30;62.10;;;;;;5076744;28;20214;-69
2021/04/20 05:44:15;;;;;;;;;;;14.30;62.40;;;;;;5090516;28;19974;-69
2021/04/20 05:46:42;;;;;;;;;;;14.20;63.20;;;;;;5073233;28;20019;-69
2021/04/20 05:49:09;;;;;;;;;;;14.20;63.10;;;;;;5073839;28;20007;-69
2021/04/20 05:51:36;;;;;;;;;;;14.20;62.70;;;;;;5073898;28;20023;-69
2021/04/20 05:54:03;;;;;;;;;;;14.10;62.90;;;;;;5071542;28;19924;-69
2021/04/20 05:56:29;;;;;;;;;;;14.10;63.50;;;;;;5073496;28;19912;-69
2021/04/20 05:58:57;;;;;;;;;;;14.10;63.00;;;;;;5074327;28;20270;-70
2021/04/20 06:01:24;;;;;;;;;;;14.00;62.70;;;;;;5073058;28;19973;-69
2021/04/20 06:03:51;;;;;;;;;;;14.10;62.90;;;;;;5074637;28;19928;-70
2021/04/20 06:06:18;;;;;;;;;;;14.10;62.60;;;;;;5074542;28;19913;-69
2021/04/20 06:08:44;;;;;;;;;;;14.10;63.20;;;;;;5075020;28;19912;-69
2021/04/20 06:11:11;;;;;;;;;;;14.10;62.80;;;;;;5056836;28;19913;-69
2021/04/20 06:13:40;;;;;;;;;;;14.20;63.30;;;;;;5061134;28;19923;-69
2021/04/20 06:16:07;;;;;;;;;;;14.20;63.40;;;;;;5068738;28;19913;-69
2021/04/20 06:18:33;;;;;;;;;;;14.10;62.90;;;;;;5077095;28;19913;-69
2021/04/20 06:21:00;;;;;;;;;;;14.10;63.30;;;;;;5071122;28;19936;-69
2021/04/20 06:23:27;;;;;;;;;;;14.20;63.30;;;;;;5062350;28;19913;-69
2021/04/20 06:25:56;;;;;;;;;;;14.10;63.20;;;;;;5072332;28;19927;-69
2021/04/20 06:28:24;;;;;;;;;;;14.00;63.50;;;;;;5071847;28;19912;-69
2021/04/20 06:30:50;;;;;;;;;;;14.00;63.10;;;;;;5067486;28;19975;-68
2021/04/20 06:33:17;;;;;;;;;;;14.00;63.20;;;;;;5073944;28;20369;-69
2021/04/20 06:35:43;;;;;;;;;;;14.00;63.40;;;;;;5070795;28;19913;-69
2021/04/20 06:38:11;;;;;;;;;;;14.10;63.70;;;;;;5072416;28;19924;-69
2021/04/20 06:40:40;;;;;;;;;;;14.00;63.90;;;;;;5070002;28;19913;-69
2021/04/20 06:43:07;;;;;;;;;;;14.00;63.30;;;;;;5073593;28;19925;-69
2021/04/20 06:45:35;;;;;;;;;;;14.10;63.50;;;;;;5072154;28;19913;-69
2021/04/20 06:48:20;;;;;;;;;;;14.00;63.10;;;;;;5073770;28;19912;-69
2021/04/20 06:50:47;;;;;;;;;;;14.00;63.50;;;;;;5070539;28;19912;-69
2021/04/20 06:53:18;;;;;;;;;;;14.00;63.70;;;;;;5072046;28;20365;-69
2021/04/20 06:55:56;;;;;;;;;;;13.90;63.30;;;;;;5074830;28;19912;-71
2021/04/20 06:58:27;;;;;;;;;;;14.00;63.30;;;;;;5077907;28;20004;-73
2021/04/20 07:00:59;;;;;;;;;;;14.00;64.30;;;;;;5077135;28;19917;-69
2021/04/20 07:03:47;;;;;;;;;;;14.00;63.50;;;;;;5076433;28;19920;-69
2021/04/20 07:06:13;;;;;;;;;;;13.90;63.30;;;;;;5077034;28;19967;-69
2021/04/20 07:08:45;;;;;;;;;;;14.00;63.50;;;;;;5076231;28;19916;-69
2021/04/20 07:11:13;;;;;;;;;;;13.90;63.70;;;;;;5076246;28;19913;-68
2021/04/20 07:13:45;;;;;;;;;;;14.00;64.20;;;;;;5075659;28;19916;-69
2021/04/20 07:16:32;;;;;;;;;;;13.90;63.60;;;;;;5074525;28;19920;-69
2021/04/20 07:19:17;;;;;;;;;;;13.90;63.70;;;;;;5076977;28;19962;-69
2021/04/20 07:21:46;;;;;;;;;;;13.90;64.10;;;;;;5077149;28;19951;-69
2021/04/20 07:24:25;;;;;;;;;;;13.90;63.60;;;;;;5077304;28;20000;-69
2021/04/20 07:26:53;;;;;;;;;;;13.90;63.70;;;;;;5070517;28;19913;-69
2021/04/20 07:29:31;;;;;;;;;;;13.90;64.20;;;;;;5077037;28;19912;-69
2021/04/20 07:31:58;;;;;;;;;;;13.90;64.40;;;;;;5077594;28;20274;-69
2021/04/20 07:34:35;;;;;;;;;;;13.80;64.00;;;;;;5082893;28;19920;-69
2021/04/20 07:37:23;;;;;;;;;;;13.80;64.80;;;;;;5068004;28;19917;-69
2021/04/20 07:40:07;;;;;;;;;;;13.80;64.50;;;;;;5076089;28;19920;-68
2021/04/20 07:42:42;;;;;;;;;;;13.90;64.30;;;;;;5079958;28;20011;-69
2021/04/20 07:45:27;;;;;;;;;;;13.90;64.70;;;;;;5066400;28;19924;-69
2021/04/20 07:47:57;;;;;;;;;;;13.80;64.20;;;;;;5074573;28;20021;-69
2021/04/20 07:50:27;;;;;;;;;;;13.70;64.20;;;;;;5060603;28;20054;-68
2021/04/20 07:53:15;;;;;;;;;;;13.80;65.20;;;;;;5074098;28;20373;-69
2021/04/20 07:55:54;;;;;;;;;;;13.80;64.90;;;;;;5076385;28;19916;-69
2021/04/20 07:58:22;;;;;;;;;;;13.80;64.90;;;;;;5076007;28;20403;-69
2021/04/20 08:01:02;;;;;;;;;;;13.80;64.80;;;;;;5074352;28;20262;-68
2021/04/20 08:03:54;;;;;;;;;;;13.90;64.60;;;;;;5073360;28;19969;-70
2021/04/20 08:06:24;;;;;;;;;;;13.80;64.90;;;;;;5069548;28;19935;-68
2021/04/20 08:08:56;;;;;;;;;;;13.80;65.00;;;;;;5066323;28;20003;-69
2021/04/20 08:11:26;;;;;;;;;;;13.70;64.80;;;;;;5075901;28;19958;-69
2021/04/20 08:13:52;;;;;;;;;;;13.80;64.70;;;;;;5076801;28;19912;-69
2021/04/20 08:16:33;;;;;;;;;;;13.90;65.50;;;;;;5075347;28;19917;-68
2021/04/20 08:19:00;;;;;;;;;;;13.90;65.00;;;;;;5075024;28;19912;-69
2021/04/20 08:21:29;;;;;;;;;;;13.90;64.80;;;;;;5074579;28;19924;-68
2021/04/20 08:23:57;;;;;;;;;;;13.80;64.80;;;;;;5107251;28;19923;-69
2021/04/20 08:26:26;;;;;;;;;;;13.70;64.30;;;;;;5064194;28;19920;-68
2021/04/20 08:28:57;;;;;;;;;;;13.70;65.50;;;;;;5072741;28;19913;-68
2021/04/20 08:31:23;;;;;;;;;;;13.70;64.60;;;;;;5072391;28;19913;-69
2021/04/20 08:34:09;;;;;;;;;;;13.80;64.60;;;;;;5075032;28;20007;-68
2021/04/20 08:36:41;;;;;;;;;;;13.60;63.90;;;;;;5074591;28;19943;-68
2021/04/20 08:39:15;;;;;;;;;;;13.70;64.60;;;;;;5074668;28;19917;-69
2021/04/20 08:42:10;;;;;;;;;;;13.60;64.20;;;;;;5069965;28;19925;-69
2021/04/20 08:44:39;;;;;;;;;;;13.60;64.20;;;;;;5071202;28;19920;-68
2021/04/20 08:47:05;;;;;;;;;;;13.60;63.60;;;;;;5074024;28;19912;-69
2021/04/20 08:49:43;;;;;;;;;;;13.50;64.30;;;;;;5074636;28;19999;-68
2021/04/20 08:52:28;;;;;;;;;;;13.60;63.80;;;;;;5074082;28;20009;-69
2021/04/20 08:55:05;;;;;;;;;;;13.60;63.70;;;;;;5075586;28;19932;-69
2021/04/20 08:57:31;;;;;;;;;;;13.70;63.90;;;;;;5075920;28;20278;-69
2021/04/20 08:59:57;;;;;;;;;;;13.70;63.60;;;;;;5076351;28;19922;-69
2021/04/20 09:02:29;;;;;;;;;;;13.60;63.10;;;;;;5077156;28;19912;-69
2021/04/20 09:05:09;;;;;;;;;;;13.60;63.30;;;;;;5074472;28;19913;-68
2021/04/20 09:07:50;;;;;;;;;;;13.50;63.20;;;;;;5074562;28;19912;-69
2021/04/20 09:10:18;;;;;;;;;;;13.40;63.10;;;;;;5074613;28;19912;-68
2021/04/20 09:12:45;;;;;;;;;;;13.40;63.60;;;;;;5074911;28;20346;-68
2021/04/20 09:15:11;;;;;;;;;;;13.30;63.40;;;;;;5074220;28;19948;-69
2021/04/20 09:17:45;;;;;;;;;;;13.30;63.50;;;;;;5073111;28;19912;-68
2021/04/20 09:20:19;;;;;;;;;;;13.20;63.50;;;;;;5065320;28;20219;-69
2021/04/20 09:22:51;;;;;;;;;;;13.20;63.40;;;;;;5071049;28;19962;-69
2021/04/20 09:25:35;;;;;;;;;;;13.20;63.00;;;;;;5073084;28;20006;-68
2021/04/20 09:28:15;;;;;;;;;;;13.20;63.00;;;;;;5102393;28;19920;-69
2021/04/20 09:30:55;;;;;;;;;;;13.10;63.00;;;;;;5070221;28;20000;-68
2021/04/20 09:33:32;;;;;;;;;;;13.10;63.40;;;;;;5069671;28;19912;-68
2021/04/20 09:35:59;;;;;;;;;;;13.20;63.10;;;;;;5073536;28;19927;-69
2021/04/20 09:38:25;;;;;;;;;;;13.20;62.80;;;;;;5073338;28;19924;-69
2021/04/20 09:40:52;;;;;;;;;;;13.30;64.30;;;;;;5073095;28;20046;-68
2021/04/20 09:43:25;;;;;;;;;;;13.30;62.80;;;;;;5074681;28;20065;-68
2021/04/20 09:45:57;;;;;;;;;;;13.30;62.80;;;;;;5071088;28;19912;-69
2021/04/20 09:48:45;;;;;;;;;;;13.30;63.10;;;;;;5071221;28;20106;-68
2021/04/20 09:51:37;;;;;;;;;;;13.40;63.50;;;;;;5073928;28;19920;-69
2021/04/20 09:54:16;;;;;;;;;;;13.50;64.10;;;;;;5069259;28;19921;-68
2021/04/20 09:56:43;;;;;;;;;;;13.50;63.70;;;;;;5074857;28;19913;-69
2021/04/20 09:59:12;;;;;;;;;;;13.40;63.80;;;;;;5073122;28;20362;-69
2021/04/20 10:01:41;;;;;;;;;;;13.60;64.30;;;;;;5073865;28;20017;-69
2021/04/20 10:04:07;;;;;;;;;;;13.70;63.50;;;;;;5068197;28;20231;-68
2021/04/20 10:06:36;;;;;;;;;;;13.60;63.60;;;;;;5074165;28;19912;-69
2021/04/20 10:09:08;;;;;;;;;;;13.60;63.60;;;;;;5072343;28;20172;-68
2021/04/20 10:11:40;;;;;;;;;;;13.70;63.70;;;;;;5074144;28;20226;-69
2021/04/20 10:14:25;;;;;;;;;;;13.80;63.80;;;;;;5072555;28;19924;-68
2021/04/20 10:17:11;;;;;;;;;;;13.70;63.90;;;;;;5074904;28;20007;-69
2021/04/20 10:19:38;;;;;;;;;;;13.70;63.80;;;;;;5072726;28;19912;-69
2021/04/20 10:22:17;;;;;;;;;;;13.70;63.60;;;;;;5073228;28;19982;-69
2021/04/20 10:24:47;;;;;;;;;;;13.70;64.00;;;;;;5070800;28;19912;-69
2021/04/20 10:27:14;;;;;;;;;;;13.70;64.40;;;;;;5073583;28;20335;-69
2021/04/20 10:29:52;;;;;;;;;;;13.50;63.90;;;;;;5073703;28;20012;-69
2021/04/20 10:32:35;;;;;;;;;;;13.50;64.70;;;;;;5072846;28;19912;-69
2021/04/20 10:35:03;;;;;;;;;;;13.60;64.50;;;;;;5077464;28;19999;-69
2021/04/20 10:37:35;;;;;;;;;;;13.50;64.10;;;;;;5076601;28;20254;-69
2021/04/20 10:40:02;;;;;;;;;;;13.60;64.70;;;;;;5077026;28;20338;-69
2021/04/20 10:42:31;;;;;;;;;;;13.60;64.70;;;;;;5077049;28;19916;-69
2021/04/20 10:44:58;;;;;;;;;;;13.70;64.50;;;;;;5077359;28;20001;-69
2021/04/20 10:47:25;;;;;;;;;;;13.60;64.30;;;;;;5076695;28;19916;-69
2021/04/20 10:49:52;;;;;;;;;;;13.70;64.80;;;;;;5077415;28;20012;-69
2021/04/20 10:52:19;;;;;;;;;;;13.50;64.20;;;;;;5077109;28;19912;-70
2021/04/20 10:54:46;;;;;;;;;;;13.60;64.40;;;;;;5077445;28;20273;-70
2021/04/20 10:57:13;;;;;;;;;;;13.70;64.90;;;;;;5078229;28;19970;-69
2021/04/20 10:59:41;;;;;;;;;;;13.60;64.60;;;;;;5078548;28;19965;-69
2021/04/20 11:02:10;;;;;;;;;;;13.50;64.20;;;;;;5078551;28;19927;-70
2021/04/20 11:04:37;;;;;;;;;;;13.50;64.30;;;;;;5077978;28;20369;-69
2021/04/20 11:07:17;;;;;;;;;;;13.40;64.40;;;;;;5071092;28;20011;-69
2021/04/20 11:09:43;;;;;;;;;;;13.50;64.60;;;;;;5073827;28;19912;-69
2021/04/20 11:12:14;;;;;;;;;;;13.40;64.20;;;;;;5076862;28;19920;-69
2021/04/20 11:14:41;;;;;;;;;;;13.30;64.20;;;;;;5076360;28;20342;-68
2021/04/20 11:17:26;;;;;;;;;;;13.50;64.30;;;;;;5076500;28;19912;-69
2021/04/20 11:19:55;;;;;;;;;;;13.40;64.00;;;;;;5067726;28;19962;-69
2021/04/20 11:22:22;;;;;;;;;;;13.30;64.00;;;;;;5075353;28;19912;-69
2021/04/20 11:24:51;;;;;;;;;;;13.20;64.10;;;;;;5076725;28;19912;-69
2021/04/20 11:27:19;;;;;;;;;;;13.40;64.50;;;;;;5075275;28;19970;-68
2021/04/20 11:30:07;;;;;;;;;;;13.50;63.70;;;;;;5069314;28;19913;-68
2021/04/20 11:32:35;;;;;;;;;;;13.30;63.60;;;;;;5067824;28;19912;-69
2021/04/20 11:35:05;;;;;;;;;;;13.20;64.20;;;;;;5076795;28;19928;-68
2021/04/20 11:37:33;;;;;;;;;;;13.30;64.00;;;;;;5074970;28;19952;-69
2021/04/20 11:40:02;;;;;;;;;;;13.30;64.70;;;;;;5076162;28;19951;-68
2021/04/20 11:42:36;;;;;;;;;;;13.40;64.30;;;;;;5076493;28;19962;-68
2021/04/20 11:45:10;;;;;;;;;;;13.20;64.20;;;;;;5075318;28;19955;-69
2021/04/20 11:48:09;;;;;;;;;;;13.10;64.20;;;;;;5069399;28;20385;-69
2021/04/20 11:50:36;;;;;;;;;;;13.10;64.10;;;;;;5063899;28;19913;-69
2021/04/20 11:53:06;;;;;;;;;;;13.10;64.10;;;;;;5075853;28;19916;-69
2021/04/20 11:55:36;;;;;;;;;;;13.10;64.00;;;;;;5073922;28;19920;-68
2021/04/20 11:58:10;;;;;;;;;;;13.00;63.90;;;;;;5072561;28;20230;-68
2021/04/20 12:00:37;;;;;;;;;;;13.10;64.10;;;;;;5089225;28;20338;-68
2021/04/20 12:03:08;;;;;;;;;;;13.00;64.10;;;;;;5075721;28;19913;-68
2021/04/20 12:05:34;;;;;;;;;;;13.10;64.40;;;;;;5075122;28;20337;-69
2021/04/20 12:08:02;;;;;;;;;;;13.20;64.00;;;;;;5075971;28;20372;-68
2021/04/20 12:10:28;;;;;;;;;;;13.20;64.40;;;;;;5074170;28;19970;-68
2021/04/20 12:12:54;;;;;;;;;;;13.20;64.50;;;;;;5074192;28;19927;-69
2021/04/20 12:15:21;;;;;;;;;;;13.50;65.90;;;;;;5076106;28;19923;-69
2021/04/20 12:17:47;;;;;;;;;;;13.40;64.60;;;;;;5076010;28;19918;-69
2021/04/20 12:20:15;;;;;;;;;;;13.30;64.90;;;;;;5073536;28;19920;-69
2021/04/20 12:22:43;;;;;;;;;;;13.40;65.10;;;;;;5075475;28;19916;-69
2021/04/20 12:25:15;;;;;;;;;;;13.40;64.90;;;;;;5074967;28;19912;-68
2021/04/20 12:27:41;;;;;;;;;;;13.40;64.70;;;;;;5075790;28;20357;-69
2021/04/20 12:30:11;;;;;;;;;;;13.50;65.20;;;;;;5074289;28;20361;-69
2021/04/20 12:32:37;;;;;;;;;;;13.40;65.50;;;;;;5074659;28;19913;-69
2021/04/20 12:35:04;;;;;;;;;;;13.50;65.80;;;;;;5075139;28;19916;-69
2021/04/20 12:37:31;;;;;;;;;;;13.40;64.60;;;;;;5075209;28;19940;-68
2021/04/20 12:39:59;;;;;;;;;;;13.40;65.30;;;;;;5074783;28;20367;-68
2021/04/20 12:42:31;;;;;;;;;;;13.50;65.70;;;;;;5075214;28;20014;-69
2021/04/20 12:44:58;;;;;;;;;;;13.40;65.60;;;;;;5074529;28;19970;-69
2021/04/20 12:47:28;;;;;;;;;;;13.40;65.60;;;;;;5074127;28;20451;-69
2021/04/20 12:49:55;;;;;;;;;;;13.40;65.50;;;;;;5075429;28;19923;-69
2021/04/20 12:52:24;;;;;;;;;;;13.40;66.00;;;;;;5075147;28;19923;-68
2021/04/20 12:54:52;;;;;;;;;;;13.40;66.00;;;;;;5074175;28;20307;-69
2021/04/20 12:57:22;;;;;;;;;;;13.50;65.70;;;;;;5074494;28;19946;-70
2021/04/20 12:59:53;;;;;;;;;;;13.40;65.90;;;;;;5075148;28;19977;-69
2021/04/20 13:02:20;;;;;;;;;;;13.30;65.90;;;;;;5073078;28;19969;-69
2021/04/20 13:04:47;;;;;;;;;;;13.30;66.10;;;;;;5075639;28;20009;-70
2021/04/20 13:07:14;;;;;;;;;;;13.10;66.10;;;;;;5076800;28;19912;-70
2021/04/20 13:09:41;;;;;;;;;;;13.10;65.50;;;;;;5076970;28;19919;-69
2021/04/20 13:12:11;;;;;;;;;;;13.30;65.90;;;;;;5073804;28;19912;-70
2021/04/20 13:14:38;;;;;;;;;;;13.30;65.70;;;;;;5074375;28;19923;-69
2021/04/20 13:17:04;;;;;;;;;;;13.30;65.80;;;;;;5074428;28;19981;-69
2021/04/20 13:19:32;;;;;;;;;;;13.10;65.70;;;;;;5073648;28;19919;-70
2021/04/20 13:22:01;;;;;;;;;;;13.10;65.50;;;;;;5074140;28;19973;-70
2021/04/20 13:24:28;;;;;;;;;;;13.20;65.70;;;;;;5074561;28;20265;-69
2021/04/20 13:26:55;;;;;;;;;;;13.20;66.00;;;;;;5073994;28;20003;-69
2021/04/20 13:29:27;;;;;;;;;;;13.30;66.20;;;;;;5073714;28;20326;-69
2021/04/20 13:31:54;;;;;;;;;;;13.30;65.80;;;;;;5074268;28;19920;-69
2021/04/20 13:34:29;;;;;;;;;;;13.30;66.60;;;;;;5074530;28;19917;-73
2021/04/20 13:36:56;;;;;;;;;;;13.30;65.80;;;;;;5075374;28;20350;-72
2021/04/20 13:39:31;;;;;;;;;;;13.30;66.40;;;;;;5073252;28;19920;-70
2021/04/20 13:42:08;;;;;;;;;;;13.40;67.10;;;;;;5073387;28;19916;-69
2021/04/20 13:44:53;;;;;;;;;;;13.30;66.20;;;;;;5064401;28;19917;-69
2021/04/20 13:47:20;;;;;;;;;;;13.30;65.80;;;;;;5075366;28;19968;-69
2021/04/20 13:49:51;;;;;;;;;;;13.50;66.90;;;;;;5069245;28;19920;-69
2021/04/20 13:52:19;;;;;;;;;;;13.50;66.30;;;;;;5074245;28;20300;-68
2021/04/20 13:55:04;;;;;;;;;;;13.50;66.20;;;;;;5074106;28;19916;-69
2021/04/20 13:57:32;;;;;;;;;;;13.40;66.00;;;;;;5072722;28;19912;-68
2021/04/20 14:00:06;;;;;;;;;;;13.40;66.30;;;;;;5068423;28;19919;-69
2021/04/20 14:02:33;;;;;;;;;;;13.40;66.30;;;;;;5069073;28;19950;-69
2021/04/20 14:05:01;;;;;;;;;;;13.40;66.30;;;;;;5074269;28;19955;-69
2021/04/20 14:07:29;;;;;;;;;;;13.40;66.50;;;;;;5065063;28;20563;-69
2021/04/20 14:09:57;;;;;;;;;;;13.50;66.50;;;;;;5074149;28;20269;-69
2021/04/20 14:12:45;;;;;;;;;;;13.40;65.80;;;;;;5072308;28;20353;-69
2021/04/20 14:15:12;;;;;;;;;;;13.60;66.80;;;;;;5073663;28;20019;-69
2021/04/20 14:17:41;;;;;;;;;;;13.50;66.20;;;;;;5073534;28;19913;-69
2021/04/20 14:20:14;;;;;;;;;;;13.60;66.20;;;;;;5073637;28;19970;-68
2021/04/20 14:22:41;;;;;;;;;;;13.50;66.40;;;;;;5073386;28;19913;-69
2021/04/20 14:25:07;;;;;;;;;;;13.60;66.70;;;;;;5072565;28;19986;-69
2021/04/20 14:27:34;;;;;;;;;;;13.50;66.40;;;;;;5068152;28;19912;-69
2021/04/20 14:30:01;;;;;;;;;;;13.60;66.50;;;;;;5064134;28;19920;-69